Spokane, Washington
Current Conditions -  °F | °C
As of 3:53 PM on Tuesday 25 Nov 2014 (Local Time) from KSFF Reporting Station
Light Rain Light Rain  
Wind Chill:   Ceiling: 2300
Heat Index:   Visibility: 6mi
Dew Point:   Wind: 3mph
Humidity: 89%   Direction: NA
Pressure: 30.23"   Gusts: NA
Location:  47.66°N, 117.41°W
Report Text: KSFF 252353Z VRB03KT 6SM -RA BR SCT015 BKN023 OVC028 03/02 A3023 RMK AO2 SLP245 P0003 60007 T00330017 10056 20033 51009
Loading
Personal Weather Stations






























Interactive Weather Map New forecast layout! Learn more

10-Day Weather Forecast

Advertisements
Track Severe Weather on mobile